Le Ponant — FGZZ — position and weather

sailwx.info

Track history (hours):
 
Tides and Currents Weather Stations Pressure Air Temp Water Temp Dewpoint Dewpoint Depression Visibility Wind Speed Wind Dir Waves Ship Positions

Le Ponant

Operator: Compangy des Iles du Ponant

Last reported at 2015-Mar-26 22:19 UTC. Time now 2015-Apr-01 14:23 UTC.
Position N 18°22' W 064°39'.

Length 84 m; draft 4.2 m.

Type: Passenger vessel. MMSI: 227186000.

Date/timePositionNaut miles runAvg speedWind from/ knotsBaromVisibWave heightAir tempDewpointWater temp
2015-Mar-26 22:19N 18°22' W 064°39'7 8.4
2015-Mar-26 21:33N 18°26' W 064°45'1 0.9
2015-Mar-26 20:33N 18°26' W 064°46'0 0.0
2015-Mar-26 19:33N 18°26' W 064°46'0 0.0
2015-Mar-26 18:33N 18°26' W 064°46'2 2.0
2015-Mar-26 17:33N 18°25' W 064°45'3 2.6
2015-Mar-26 16:33N 18°23' W 064°43'0 0.0
2015-Mar-26 15:34N 18°23' W 064°43'0 0.0
2015-Mar-26 14:33N 18°23' W 064°43'0 0.0
2015-Mar-26 13:34N 18°23' W 064°43'0 0.0
2015-Mar-26 12:33N 18°23' W 064°43'0 0.0
2015-Mar-26 11:33N 18°23' W 064°43'3 2.6
2015-Mar-26 10:15N 18°26' W 064°40'0 0.0
2015-Mar-26 09:27N 18°26' W 064°40'0 0.0
2015-Mar-26 08:33N 18°26' W 064°40'0 0.0
2015-Mar-26 07:33N 18°26' W 064°40'0 0.0
2015-Mar-26 06:33N 18°26' W 064°40'0 0.0
2015-Mar-26 05:27N 18°26' W 064°40'0 0.0
2015-Mar-26 04:27N 18°26' W 064°40'0 0.0
2015-Mar-26 03:33N 18°26' W 064°40'0 0.0
2015-Mar-26 02:33N 18°26' W 064°40'0 0.0
2015-Mar-26 01:21N 18°26' W 064°40'0 0.0
2015-Mar-26 00:33N 18°26' W 064°40'5 5.0
2015-Mar-25 23:33N 18°30' W 064°38'11 1.0
2015-Mar-25 12:17N 18°27' W 064°27'2 1.0
2015-Mar-25 10:20N 18°25' W 064°28'5 5.4
2015-Mar-25 09:29N 18°21' W 064°28'  
2015-Mar-19 10:33N 18°28' W 064°28'7 7.3
2015-Mar-19 09:33N 18°30' W 064°35'8 8.1
2015-Mar-19 08:33N 18°26' W 064°43'3 3.1
2015-Mar-19 07:28N 18°26' W 064°46'0 0.0
2015-Mar-19 06:28N 18°26' W 064°46'0 0.0
2015-Mar-19 05:28N 18°26' W 064°46'0 0.0
2015-Mar-19 04:28N 18°26' W 064°46'0 0.0
2015-Mar-19 03:31N 18°26' W 064°46'0 0.0
2015-Mar-19 02:28N 18°26' W 064°46'0 0.0
2015-Mar-19 01:28N 18°26' W 064°46'0 0.0
2015-Mar-19 00:28N 18°26' W 064°46'0 0.0
2015-Mar-18 23:22N 18°26' W 064°46'0 0.0
2015-Mar-18 22:28N 18°26' W 064°46'0 0.0
2015-Mar-18 21:28N 18°26' W 064°46'0 0.0
2015-Mar-18 20:28N 18°26' W 064°46'0 0.0
2015-Mar-18 19:22N 18°26' W 064°46'0 0.0
2015-Mar-18 18:28N 18°26' W 064°46'1 1.0
2015-Mar-18 17:33N 18°26' W 064°47'5 4.3
2015-Mar-18 16:29N 18°23' W 064°43'0 0.0
2015-Mar-18 15:29N 18°23' W 064°43'0 0.0
2015-Mar-18 14:29N 18°23' W 064°43'0 0.0
2015-Mar-18 13:29N 18°23' W 064°43'0 0.0
2015-Mar-18 12:29N 18°23' W 064°43'1 0.6
2015-Mar-18 11:33N 18°23' W 064°43'5 5.0
2015-Mar-18 10:33N 18°22' W 064°37'  
Track history (hours):
 
Tides and Currents Weather Stations Pressure Air Temp Water Temp Dewpoint Dewpoint Depression Visibility Wind Speed Wind Dir Waves Ship Positions

Le Ponant

Operator: Compangy des Iles du Ponant

Last reported at 2015-Mar-26 22:19 UTC. Time now 2015-Apr-01 14:23 UTC.
Position N 18°22' W 064°39'.

Length 84 m; draft 4.2 m.

Type: Passenger vessel. MMSI: 227186000.

Date/timePositionNaut miles runAvg speedWind from/ knotsBaromVisibWave heightAir tempDewpointWater temp
2015-Mar-26 22:19N 18°22' W 064°39'7 8.4
2015-Mar-26 21:33N 18°26' W 064°45'1 0.9
2015-Mar-26 20:33N 18°26' W 064°46'0 0.0
2015-Mar-26 19:33N 18°26' W 064°46'0 0.0
2015-Mar-26 18:33N 18°26' W 064°46'2 2.0
2015-Mar-26 17:33N 18°25' W 064°45'3 2.6
2015-Mar-26 16:33N 18°23' W 064°43'0 0.0
2015-Mar-26 15:34N 18°23' W 064°43'0 0.0
2015-Mar-26 14:33N 18°23' W 064°43'0 0.0
2015-Mar-26 13:34N 18°23' W 064°43'0 0.0
2015-Mar-26 12:33N 18°23' W 064°43'0 0.0
2015-Mar-26 11:33N 18°23' W 064°43'3 2.6
2015-Mar-26 10:15N 18°26' W 064°40'0 0.0
2015-Mar-26 09:27N 18°26' W 064°40'0 0.0
2015-Mar-26 08:33N 18°26' W 064°40'0 0.0
2015-Mar-26 07:33N 18°26' W 064°40'0 0.0
2015-Mar-26 06:33N 18°26' W 064°40'0 0.0
2015-Mar-26 05:27N 18°26' W 064°40'0 0.0
2015-Mar-26 04:27N 18°26' W 064°40'0 0.0
2015-Mar-26 03:33N 18°26' W 064°40'0 0.0
2015-Mar-26 02:33N 18°26' W 064°40'0 0.0
2015-Mar-26 01:21N 18°26' W 064°40'0 0.0
2015-Mar-26 00:33N 18°26' W 064°40'5 5.0
2015-Mar-25 23:33N 18°30' W 064°38'11 1.0
2015-Mar-25 12:17N 18°27' W 064°27'2 1.0
2015-Mar-25 10:20N 18°25' W 064°28'5 5.4
2015-Mar-25 09:29N 18°21' W 064°28'  
2015-Mar-19 10:33N 18°28' W 064°28'7 7.3
2015-Mar-19 09:33N 18°30' W 064°35'8 8.1
2015-Mar-19 08:33N 18°26' W 064°43'3 3.1
2015-Mar-19 07:28N 18°26' W 064°46'0 0.0
2015-Mar-19 06:28N 18°26' W 064°46'0 0.0
2015-Mar-19 05:28N 18°26' W 064°46'0 0.0
2015-Mar-19 04:28N 18°26' W 064°46'0 0.0
2015-Mar-19 03:31N 18°26' W 064°46'0 0.0
2015-Mar-19 02:28N 18°26' W 064°46'0 0.0
2015-Mar-19 01:28N 18°26' W 064°46'0 0.0
2015-Mar-19 00:28N 18°26' W 064°46'0 0.0
2015-Mar-18 23:22N 18°26' W 064°46'0 0.0
2015-Mar-18 22:28N 18°26' W 064°46'0 0.0
2015-Mar-18 21:28N 18°26' W 064°46'0 0.0
2015-Mar-18 20:28N 18°26' W 064°46'0 0.0
2015-Mar-18 19:22N 18°26' W 064°46'0 0.0
2015-Mar-18 18:28N 18°26' W 064°46'1 1.0
2015-Mar-18 17:33N 18°26' W 064°47'5 4.3
2015-Mar-18 16:29N 18°23' W 064°43'0 0.0
2015-Mar-18 15:29N 18°23' W 064°43'0 0.0
2015-Mar-18 14:29N 18°23' W 064°43'0 0.0
2015-Mar-18 13:29N 18°23' W 064°43'0 0.0
2015-Mar-18 12:29N 18°23' W 064°43'1 0.6
2015-Mar-18 11:33N 18°23' W 064°43'5 5.0
2015-Mar-18 10:33N 18°22' W 064°37'  

Dump ship's entire track history